sensor_id;sensor_type;location;lat;lon;timestamp;P1;durP1;ratioP1;P2;durP2;ratioP2
23258;SDS011;11798;51.528;7.240;2023-05-10T00:00:16;11.57;;;9.50;;
23258;SDS011;11798;51.528;7.240;2023-05-10T00:02:42;11.97;;;9.60;;
23258;SDS011;11798;51.528;7.240;2023-05-10T00:05:07;12.60;;;9.90;;
23258;SDS011;11798;51.528;7.240;2023-05-10T00:07:33;14.47;;;10.47;;
23258;SDS011;11798;51.528;7.240;2023-05-10T00:09:59;13.20;;;11.03;;
23258;SDS011;11798;51.528;7.240;2023-05-10T00:12:24;15.13;;;11.10;;
23258;SDS011;11798;51.528;7.240;2023-05-10T00:14:50;12.93;;;10.17;;
23258;SDS011;11798;51.528;7.240;2023-05-10T00:17:15;15.47;;;11.00;;
23258;SDS011;11798;51.528;7.240;2023-05-10T00:19:41;15.80;;;11.63;;
23258;SDS011;11798;51.528;7.240;2023-05-10T00:22:07;16.67;;;11.87;;
23258;SDS011;11798;51.528;7.240;2023-05-10T00:24:32;16.03;;;11.80;;
23258;SDS011;11798;51.528;7.240;2023-05-10T00:26:58;16.00;;;11.87;;
23258;SDS011;11798;51.528;7.240;2023-05-10T00:29:23;19.33;;;13.40;;
23258;SDS011;11798;51.528;7.240;2023-05-10T00:31:49;18.53;;;12.37;;
23258;SDS011;11798;51.528;7.240;2023-05-10T00:34:14;18.30;;;12.57;;
23258;SDS011;11798;51.528;7.240;2023-05-10T00:36:40;17.67;;;12.63;;
23258;SDS011;11798;51.528;7.240;2023-05-10T00:39:06;20.03;;;13.10;;
23258;SDS011;11798;51.528;7.240;2023-05-10T00:41:32;19.97;;;13.53;;
23258;SDS011;11798;51.528;7.240;2023-05-10T00:43:58;20.30;;;13.73;;
23258;SDS011;11798;51.528;7.240;2023-05-10T00:46:24;20.47;;;14.10;;
23258;SDS011;11798;51.528;7.240;2023-05-10T00:48:50;21.63;;;14.80;;
23258;SDS011;11798;51.528;7.240;2023-05-10T00:51:16;23.83;;;15.93;;
23258;SDS011;11798;51.528;7.240;2023-05-10T00:53:43;25.37;;;16.80;;
23258;SDS011;11798;51.528;7.240;2023-05-10T00:56:12;25.37;;;17.70;;
23258;SDS011;11798;51.528;7.240;2023-05-10T00:58:39;27.40;;;17.23;;
23258;SDS011;11798;51.528;7.240;2023-05-10T01:01:04;25.20;;;17.57;;
23258;SDS011;11798;51.528;7.240;2023-05-10T01:03:31;28.10;;;17.87;;
23258;SDS011;11798;51.528;7.240;2023-05-10T01:05:57;28.97;;;19.00;;
23258;SDS011;11798;51.528;7.240;2023-05-10T01:08:23;25.60;;;17.37;;
23258;SDS011;11798;51.528;7.240;2023-05-10T01:10:49;26.10;;;17.37;;
23258;SDS011;11798;51.528;7.240;2023-05-10T01:13:18;26.00;;;17.40;;
23258;SDS011;11798;51.528;7.240;2023-05-10T01:15:54;26.27;;;18.23;;
23258;SDS011;11798;51.528;7.240;2023-05-10T01:18:20;28.93;;;18.73;;
23258;SDS011;11798;51.528;7.240;2023-05-10T01:20:47;30.70;;;19.73;;
23258;SDS011;11798;51.528;7.240;2023-05-10T01:26:19;26.17;;;16.40;;
23258;SDS011;11798;51.528;7.240;2023-05-10T01:34:23;13.13;;;9.70;;
23258;SDS011;11798;51.528;7.240;2023-05-10T01:37:16;12.83;;;9.10;;
23258;SDS011;11798;51.528;7.240;2023-05-10T01:39:55;10.17;;;8.00;;
23258;SDS011;11798;51.528;7.240;2023-05-10T01:42:26;12.43;;;8.50;;
23258;SDS011;11798;51.528;7.240;2023-05-10T01:45:00;11.37;;;7.77;;
23258;SDS011;11798;51.528;7.240;2023-05-10T01:47:35;11.97;;;8.30;;
23258;SDS011;11798;51.528;7.240;2023-05-10T01:50:06;10.40;;;7.83;;
23258;SDS011;11798;51.528;7.240;2023-05-10T01:52:41;10.10;;;7.37;;
23258;SDS011;11798;51.528;7.240;2023-05-10T01:55:09;12.33;;;8.17;;
23258;SDS011;11798;51.528;7.240;2023-05-10T01:57:39;11.07;;;8.03;;
23258;SDS011;11798;51.528;7.240;2023-05-10T02:00:07;9.90;;;7.43;;
23258;SDS011;11798;51.528;7.240;2023-05-10T02:02:36;11.60;;;7.67;;
23258;SDS011;11798;51.528;7.240;2023-05-10T02:05:04;11.50;;;7.43;;
23258;SDS011;11798;51.528;7.240;2023-05-10T02:07:31;10.50;;;8.03;;
23258;SDS011;11798;51.528;7.240;2023-05-10T02:10:00;10.77;;;8.33;;
23258;SDS011;11798;51.528;7.240;2023-05-10T02:12:29;15.67;;;9.07;;
23258;SDS011;11798;51.528;7.240;2023-05-10T02:14:56;13.57;;;9.40;;
23258;SDS011;11798;51.528;7.240;2023-05-10T02:17:24;15.30;;;9.30;;
23258;SDS011;11798;51.528;7.240;2023-05-10T02:19:50;13.53;;;9.97;;
23258;SDS011;11798;51.528;7.240;2023-05-10T02:22:18;15.30;;;10.70;;
23258;SDS011;11798;51.528;7.240;2023-05-10T02:24:44;13.23;;;9.80;;
23258;SDS011;11798;51.528;7.240;2023-05-10T02:27:11;15.87;;;11.00;;
23258;SDS011;11798;51.528;7.240;2023-05-10T02:29:39;16.60;;;10.77;;
23258;SDS011;11798;51.528;7.240;2023-05-10T02:32:05;15.37;;;10.70;;
23258;SDS011;11798;51.528;7.240;2023-05-10T02:34:31;15.67;;;10.70;;
23258;SDS011;11798;51.528;7.240;2023-05-10T02:36:57;16.50;;;10.93;;
23258;SDS011;11798;51.528;7.240;2023-05-10T02:39:24;15.80;;;11.40;;
23258;SDS011;11798;51.528;7.240;2023-05-10T02:41:53;15.53;;;10.47;;
23258;SDS011;11798;51.528;7.240;2023-05-10T02:44:20;15.07;;;11.20;;
23258;SDS011;11798;51.528;7.240;2023-05-10T02:46:48;17.73;;;10.67;;
23258;SDS011;11798;51.528;7.240;2023-05-10T02:49:14;15.67;;;10.87;;
23258;SDS011;11798;51.528;7.240;2023-05-10T02:51:41;14.63;;;10.90;;
23258;SDS011;11798;51.528;7.240;2023-05-10T02:54:12;14.50;;;10.33;;
23258;SDS011;11798;51.528;7.240;2023-05-10T02:56:47;15.17;;;9.27;;
23258;SDS011;11798;51.528;7.240;2023-05-10T02:59:15;14.30;;;9.37;;
23258;SDS011;11798;51.528;7.240;2023-05-10T03:01:41;16.30;;;9.93;;
23258;SDS011;11798;51.528;7.240;2023-05-10T03:04:07;12.53;;;9.30;;
23258;SDS011;11798;51.528;7.240;2023-05-10T03:06:32;13.63;;;9.40;;
23258;SDS011;11798;51.528;7.240;2023-05-10T03:08:58;18.50;;;11.27;;
23258;SDS011;11798;51.528;7.240;2023-05-10T03:16:45;19.97;;;11.43;;
23258;SDS011;11798;51.528;7.240;2023-05-10T03:19:26;19.57;;;12.27;;
23258;SDS011;11798;51.528;7.240;2023-05-10T03:21:55;24.00;;;14.90;;
23258;SDS011;11798;51.528;7.240;2023-05-10T03:24:25;23.53;;;14.53;;
23258;SDS011;11798;51.528;7.240;2023-05-10T03:26:53;22.27;;;14.97;;
23258;SDS011;11798;51.528;7.240;2023-05-10T03:29:21;30.77;;;17.33;;
23258;SDS011;11798;51.528;7.240;2023-05-10T03:31:50;24.20;;;16.73;;
23258;SDS011;11798;51.528;7.240;2023-05-10T03:34:16;29.00;;;17.57;;
23258;SDS011;11798;51.528;7.240;2023-05-10T03:36:42;31.53;;;17.27;;
23258;SDS011;11798;51.528;7.240;2023-05-10T03:39:07;28.13;;;16.93;;
23258;SDS011;11798;51.528;7.240;2023-05-10T03:41:33;27.03;;;17.43;;
23258;SDS011;11798;51.528;7.240;2023-05-10T03:43:59;27.53;;;17.50;;
23258;SDS011;11798;51.528;7.240;2023-05-10T03:46:25;27.93;;;17.53;;
23258;SDS011;11798;51.528;7.240;2023-05-10T03:48:50;28.77;;;17.53;;
23258;SDS011;11798;51.528;7.240;2023-05-10T03:51:16;26.87;;;16.17;;
23258;SDS011;11798;51.528;7.240;2023-05-10T03:53:41;30.97;;;17.40;;
23258;SDS011;11798;51.528;7.240;2023-05-10T03:56:07;29.67;;;16.47;;
23258;SDS011;11798;51.528;7.240;2023-05-10T03:58:32;29.83;;;17.53;;
23258;SDS011;11798;51.528;7.240;2023-05-10T04:00:58;28.80;;;16.43;;
23258;SDS011;11798;51.528;7.240;2023-05-10T04:03:24;32.53;;;16.77;;
23258;SDS011;11798;51.528;7.240;2023-05-10T04:05:58;29.33;;;17.13;;
23258;SDS011;11798;51.528;7.240;2023-05-10T04:08:25;29.00;;;16.50;;
23258;SDS011;11798;51.528;7.240;2023-05-10T04:10:50;30.77;;;17.00;;
23258;SDS011;11798;51.528;7.240;2023-05-10T04:13:16;29.27;;;16.90;;
23258;SDS011;11798;51.528;7.240;2023-05-10T04:15:42;27.37;;;16.03;;
23258;SDS011;11798;51.528;7.240;2023-05-10T04:18:08;26.23;;;15.20;;
23258;SDS011;11798;51.528;7.240;2023-05-10T04:20:33;29.20;;;16.53;;
23258;SDS011;11798;51.528;7.240;2023-05-10T04:22:59;32.77;;;18.03;;
23258;SDS011;11798;51.528;7.240;2023-05-10T04:25:24;37.93;;;19.73;;
23258;SDS011;11798;51.528;7.240;2023-05-10T04:27:50;36.47;;;19.80;;
23258;SDS011;11798;51.528;7.240;2023-05-10T04:30:17;40.97;;;22.07;;
23258;SDS011;11798;51.528;7.240;2023-05-10T04:32:42;36.67;;;21.23;;
23258;SDS011;11798;51.528;7.240;2023-05-10T04:35:08;42.93;;;22.40;;
23258;SDS011;11798;51.528;7.240;2023-05-10T04:37:35;43.70;;;23.03;;
23258;SDS011;11798;51.528;7.240;2023-05-10T04:40:01;44.60;;;23.20;;
23258;SDS011;11798;51.528;7.240;2023-05-10T04:42:28;47.73;;;23.97;;
23258;SDS011;11798;51.528;7.240;2023-05-10T04:44:53;47.30;;;25.70;;
23258;SDS011;11798;51.528;7.240;2023-05-10T04:47:19;48.27;;;26.13;;
23258;SDS011;11798;51.528;7.240;2023-05-10T04:49:45;50.73;;;27.83;;
23258;SDS011;11798;51.528;7.240;2023-05-10T04:52:10;49.80;;;27.40;;
23258;SDS011;11798;51.528;7.240;2023-05-10T04:54:36;53.50;;;27.43;;
23258;SDS011;11798;51.528;7.240;2023-05-10T04:57:02;54.27;;;29.83;;
23258;SDS011;11798;51.528;7.240;2023-05-10T04:59:27;63.73;;;32.27;;
23258;SDS011;11798;51.528;7.240;2023-05-10T05:01:53;60.50;;;31.90;;
23258;SDS011;11798;51.528;7.240;2023-05-10T05:04:18;59.43;;;31.37;;
23258;SDS011;11798;51.528;7.240;2023-05-10T05:06:44;60.67;;;33.33;;
23258;SDS011;11798;51.528;7.240;2023-05-10T05:09:10;64.50;;;32.80;;
23258;SDS011;11798;51.528;7.240;2023-05-10T05:11:35;64.67;;;34.23;;
23258;SDS011;11798;51.528;7.240;2023-05-10T05:14:01;70.80;;;35.00;;
23258;SDS011;11798;51.528;7.240;2023-05-10T05:16:26;65.67;;;33.27;;
23258;SDS011;11798;51.528;7.240;2023-05-10T05:18:52;67.13;;;33.13;;
23258;SDS011;11798;51.528;7.240;2023-05-10T05:21:18;72.47;;;34.53;;
23258;SDS011;11798;51.528;7.240;2023-05-10T05:23:45;68.80;;;35.13;;
23258;SDS011;11798;51.528;7.240;2023-05-10T05:26:11;68.37;;;34.50;;
23258;SDS011;11798;51.528;7.240;2023-05-10T05:28:37;73.53;;;35.60;;
23258;SDS011;11798;51.528;7.240;2023-05-10T05:31:06;69.43;;;37.53;;
23258;SDS011;11798;51.528;7.240;2023-05-10T05:33:32;68.10;;;33.90;;
23258;SDS011;11798;51.528;7.240;2023-05-10T05:36:02;69.50;;;33.47;;
23258;SDS011;11798;51.528;7.240;2023-05-10T05:38:29;64.63;;;34.03;;
23258;SDS011;11798;51.528;7.240;2023-05-10T05:40:54;67.37;;;34.20;;
23258;SDS011;11798;51.528;7.240;2023-05-10T05:43:20;72.30;;;35.13;;
23258;SDS011;11798;51.528;7.240;2023-05-10T05:45:45;71.07;;;34.40;;
23258;SDS011;11798;51.528;7.240;2023-05-10T05:48:11;74.60;;;36.23;;
23258;SDS011;11798;51.528;7.240;2023-05-10T05:50:37;73.53;;;35.37;;
23258;SDS011;11798;51.528;7.240;2023-05-10T05:53:02;71.97;;;36.73;;
23258;SDS011;11798;51.528;7.240;2023-05-10T05:55:28;72.30;;;35.83;;
23258;SDS011;11798;51.528;7.240;2023-05-10T05:57:54;74.83;;;35.80;;
23258;SDS011;11798;51.528;7.240;2023-05-10T06:00:20;76.17;;;36.67;;
23258;SDS011;11798;51.528;7.240;2023-05-10T06:02:46;71.93;;;38.77;;
23258;SDS011;11798;51.528;7.240;2023-05-10T06:05:11;68.17;;;36.33;;
23258;SDS011;11798;51.528;7.240;2023-05-10T06:07:38;70.47;;;37.33;;
23258;SDS011;11798;51.528;7.240;2023-05-10T06:10:07;70.07;;;37.47;;
23258;SDS011;11798;51.528;7.240;2023-05-10T06:12:33;67.80;;;36.57;;
23258;SDS011;11798;51.528;7.240;2023-05-10T06:14:59;73.40;;;37.73;;
23258;SDS011;11798;51.528;7.240;2023-05-10T06:17:24;65.17;;;36.13;;
23258;SDS011;11798;51.528;7.240;2023-05-10T06:19:50;67.93;;;36.90;;
23258;SDS011;11798;51.528;7.240;2023-05-10T06:22:15;69.23;;;37.20;;
23258;SDS011;11798;51.528;7.240;2023-05-10T06:24:41;66.10;;;35.70;;
23258;SDS011;11798;51.528;7.240;2023-05-10T06:27:07;66.37;;;36.40;;
23258;SDS011;11798;51.528;7.240;2023-05-10T06:29:32;69.93;;;37.77;;
23258;SDS011;11798;51.528;7.240;2023-05-10T06:31:58;71.13;;;38.60;;
23258;SDS011;11798;51.528;7.240;2023-05-10T06:34:24;70.47;;;38.63;;
23258;SDS011;11798;51.528;7.240;2023-05-10T06:36:49;69.07;;;37.23;;
23258;SDS011;11798;51.528;7.240;2023-05-10T06:39:15;67.97;;;37.87;;
23258;SDS011;11798;51.528;7.240;2023-05-10T06:41:41;71.80;;;37.33;;
23258;SDS011;11798;51.528;7.240;2023-05-10T06:44:07;70.53;;;37.97;;
23258;SDS011;11798;51.528;7.240;2023-05-10T06:46:33;64.30;;;37.17;;
23258;SDS011;11798;51.528;7.240;2023-05-10T06:48:59;65.03;;;37.60;;
23258;SDS011;11798;51.528;7.240;2023-05-10T06:51:24;63.50;;;37.67;;
23258;SDS011;11798;51.528;7.240;2023-05-10T06:53:51;64.13;;;37.20;;
23258;SDS011;11798;51.528;7.240;2023-05-10T06:56:16;62.53;;;37.87;;
23258;SDS011;11798;51.528;7.240;2023-05-10T06:58:42;63.00;;;36.73;;
23258;SDS011;11798;51.528;7.240;2023-05-10T07:01:07;66.80;;;39.20;;
23258;SDS011;11798;51.528;7.240;2023-05-10T07:03:33;57.93;;;34.03;;
23258;SDS011;11798;51.528;7.240;2023-05-10T07:06:02;57.57;;;34.27;;
23258;SDS011;11798;51.528;7.240;2023-05-10T07:08:31;57.10;;;34.50;;
23258;SDS011;11798;51.528;7.240;2023-05-10T07:13:27;51.63;;;33.00;;
23258;SDS011;11798;51.528;7.240;2023-05-10T07:15:52;54.00;;;31.60;;
23258;SDS011;11798;51.528;7.240;2023-05-10T07:18:18;54.03;;;33.80;;
23258;SDS011;11798;51.528;7.240;2023-05-10T07:20:43;49.80;;;31.63;;
23258;SDS011;11798;51.528;7.240;2023-05-10T07:23:09;51.83;;;32.17;;
23258;SDS011;11798;51.528;7.240;2023-05-10T07:25:34;51.03;;;30.13;;
23258;SDS011;11798;51.528;7.240;2023-05-10T07:28:00;51.20;;;30.00;;
23258;SDS011;11798;51.528;7.240;2023-05-10T07:30:26;52.00;;;31.43;;
23258;SDS011;11798;51.528;7.240;2023-05-10T07:32:51;51.40;;;29.50;;
23258;SDS011;11798;51.528;7.240;2023-05-10T07:35:17;54.37;;;31.17;;
23258;SDS011;11798;51.528;7.240;2023-05-10T07:37:42;52.43;;;30.33;;
23258;SDS011;11798;51.528;7.240;2023-05-10T07:40:08;47.73;;;30.43;;
23258;SDS011;11798;51.528;7.240;2023-05-10T07:42:34;54.40;;;32.33;;
23258;SDS011;11798;51.528;7.240;2023-05-10T07:44:59;50.43;;;30.70;;
23258;SDS011;11798;51.528;7.240;2023-05-10T07:47:25;53.23;;;30.93;;
23258;SDS011;11798;51.528;7.240;2023-05-10T07:49:50;48.77;;;30.30;;
23258;SDS011;11798;51.528;7.240;2023-05-10T07:52:16;49.13;;;29.80;;
23258;SDS011;11798;51.528;7.240;2023-05-10T07:54:42;51.97;;;32.10;;
23258;SDS011;11798;51.528;7.240;2023-05-10T07:57:07;46.87;;;30.97;;
23258;SDS011;11798;51.528;7.240;2023-05-10T07:59:33;54.30;;;31.63;;
23258;SDS011;11798;51.528;7.240;2023-05-10T08:01:58;50.97;;;32.40;;
23258;SDS011;11798;51.528;7.240;2023-05-10T08:04:24;55.47;;;34.77;;
23258;SDS011;11798;51.528;7.240;2023-05-10T08:06:50;61.47;;;35.90;;
23258;SDS011;11798;51.528;7.240;2023-05-10T08:09:15;55.43;;;35.07;;
23258;SDS011;11798;51.528;7.240;2023-05-10T08:11:41;53.27;;;34.63;;
23258;SDS011;11798;51.528;7.240;2023-05-10T08:14:06;59.03;;;35.93;;
23258;SDS011;11798;51.528;7.240;2023-05-10T08:16:32;55.93;;;36.07;;
23258;SDS011;11798;51.528;7.240;2023-05-10T08:18:58;50.43;;;32.80;;
23258;SDS011;11798;51.528;7.240;2023-05-10T08:21:23;49.17;;;31.63;;
23258;SDS011;11798;51.528;7.240;2023-05-10T08:23:49;52.83;;;32.20;;
23258;SDS011;11798;51.528;7.240;2023-05-10T08:26:14;46.13;;;29.93;;
23258;SDS011;11798;51.528;7.240;2023-05-10T08:28:40;48.27;;;31.53;;
23258;SDS011;11798;51.528;7.240;2023-05-10T08:31:05;47.60;;;28.23;;
23258;SDS011;11798;51.528;7.240;2023-05-10T08:33:31;42.77;;;27.10;;
23258;SDS011;11798;51.528;7.240;2023-05-10T08:35:57;43.03;;;27.07;;
23258;SDS011;11798;51.528;7.240;2023-05-10T08:38:22;49.97;;;27.73;;
23258;SDS011;11798;51.528;7.240;2023-05-10T08:40:48;44.60;;;26.53;;
23258;SDS011;11798;51.528;7.240;2023-05-10T08:43:15;44.80;;;26.93;;
23258;SDS011;11798;51.528;7.240;2023-05-10T08:45:42;48.43;;;28.63;;
23258;SDS011;11798;51.528;7.240;2023-05-10T08:48:10;40.60;;;26.90;;
23258;SDS011;11798;51.528;7.240;2023-05-10T08:50:39;41.57;;;25.67;;
23258;SDS011;11798;51.528;7.240;2023-05-10T08:53:10;40.50;;;25.77;;
23258;SDS011;11798;51.528;7.240;2023-05-10T08:55:37;40.40;;;24.73;;
23258;SDS011;11798;51.528;7.240;2023-05-10T08:58:04;43.77;;;26.93;;
23258;SDS011;11798;51.528;7.240;2023-05-10T09:00:30;44.37;;;25.90;;
23258;SDS011;11798;51.528;7.240;2023-05-10T09:02:57;48.33;;;26.80;;
23258;SDS011;11798;51.528;7.240;2023-05-10T09:05:23;41.00;;;26.83;;
23258;SDS011;11798;51.528;7.240;2023-05-10T09:07:49;38.77;;;25.53;;
23258;SDS011;11798;51.528;7.240;2023-05-10T09:10:15;39.80;;;25.80;;
23258;SDS011;11798;51.528;7.240;2023-05-10T09:12:41;39.50;;;24.37;;
23258;SDS011;11798;51.528;7.240;2023-05-10T09:15:09;34.70;;;21.77;;
23258;SDS011;11798;51.528;7.240;2023-05-10T09:17:35;34.87;;;21.60;;
23258;SDS011;11798;51.528;7.240;2023-05-10T09:20:03;33.43;;;21.73;;
23258;SDS011;11798;51.528;7.240;2023-05-10T09:22:30;31.23;;;20.40;;
23258;SDS011;11798;51.528;7.240;2023-05-10T09:27:35;35.17;;;20.80;;
23258;SDS011;11798;51.528;7.240;2023-05-10T09:30:03;33.43;;;22.20;;
23258;SDS011;11798;51.528;7.240;2023-05-10T09:32:43;30.00;;;20.30;;
23258;SDS011;11798;51.528;7.240;2023-05-10T09:35:10;31.37;;;21.60;;
23258;SDS011;11798;51.528;7.240;2023-05-10T09:37:41;32.30;;;20.97;;
23258;SDS011;11798;51.528;7.240;2023-05-10T09:40:22;34.17;;;21.67;;
23258;SDS011;11798;51.528;7.240;2023-05-10T09:45:22;37.70;;;23.00;;
23258;SDS011;11798;51.528;7.240;2023-05-10T09:47:52;35.50;;;24.03;;
23258;SDS011;11798;51.528;7.240;2023-05-10T09:50:18;36.13;;;24.00;;
23258;SDS011;11798;51.528;7.240;2023-05-10T09:55:25;32.13;;;22.33;;
23258;SDS011;11798;51.528;7.240;2023-05-10T09:58:04;31.47;;;22.00;;
23258;SDS011;11798;51.528;7.240;2023-05-10T10:00:35;27.47;;;20.17;;
23258;SDS011;11798;51.528;7.240;2023-05-10T10:03:02;28.23;;;17.83;;
23258;SDS011;11798;51.528;7.240;2023-05-10T10:05:35;27.03;;;16.77;;
23258;SDS011;11798;51.528;7.240;2023-05-10T10:08:04;23.00;;;14.97;;
23258;SDS011;11798;51.528;7.240;2023-05-10T10:10:31;20.27;;;13.17;;
23258;SDS011;11798;51.528;7.240;2023-05-10T10:12:57;22.63;;;13.83;;
23258;SDS011;11798;51.528;7.240;2023-05-10T10:15:23;21.87;;;14.50;;
23258;SDS011;11798;51.528;7.240;2023-05-10T10:17:50;23.47;;;14.93;;
23258;SDS011;11798;51.528;7.240;2023-05-10T10:20:16;25.13;;;17.00;;
23258;SDS011;11798;51.528;7.240;2023-05-10T10:22:43;32.03;;;17.67;;
23258;SDS011;11798;51.528;7.240;2023-05-10T10:25:10;30.63;;;19.03;;
23258;SDS011;11798;51.528;7.240;2023-05-10T10:27:45;36.83;;;25.20;;
23258;SDS011;11798;51.528;7.240;2023-05-10T10:32:54;41.80;;;26.37;;
23258;SDS011;11798;51.528;7.240;2023-05-10T10:35:35;37.23;;;24.37;;
23258;SDS011;11798;51.528;7.240;2023-05-10T10:38:01;35.03;;;23.03;;
23258;SDS011;11798;51.528;7.240;2023-05-10T10:40:30;34.07;;;21.43;;
23258;SDS011;11798;51.528;7.240;2023-05-10T10:42:57;30.33;;;19.97;;
23258;SDS011;11798;51.528;7.240;2023-05-10T10:45:43;32.30;;;22.20;;
23258;SDS011;11798;51.528;7.240;2023-05-10T10:48:21;32.60;;;22.27;;
23258;SDS011;11798;51.528;7.240;2023-05-10T10:50:48;30.90;;;22.07;;
23258;SDS011;11798;51.528;7.240;2023-05-10T10:53:21;32.80;;;22.97;;
23258;SDS011;11798;51.528;7.240;2023-05-10T10:55:48;32.37;;;22.90;;
23258;SDS011;11798;51.528;7.240;2023-05-10T10:58:33;33.00;;;22.80;;
23258;SDS011;11798;51.528;7.240;2023-05-10T11:01:16;30.43;;;22.00;;
23258;SDS011;11798;51.528;7.240;2023-05-10T11:04:16;30.70;;;22.03;;
23258;SDS011;11798;51.528;7.240;2023-05-10T11:06:40;25.87;;;18.83;;
23258;SDS011;11798;51.528;7.240;2023-05-10T11:09:07;25.70;;;18.17;;
23258;SDS011;11798;51.528;7.240;2023-05-10T11:11:36;24.67;;;17.10;;
23258;SDS011;11798;51.528;7.240;2023-05-10T11:14:14;23.10;;;16.30;;
23258;SDS011;11798;51.528;7.240;2023-05-10T11:16:44;23.80;;;16.40;;
23258;SDS011;11798;51.528;7.240;2023-05-10T11:19:10;23.70;;;16.90;;
23258;SDS011;11798;51.528;7.240;2023-05-10T11:21:48;24.97;;;17.50;;
23258;SDS011;11798;51.528;7.240;2023-05-10T11:24:16;28.53;;;19.10;;
23258;SDS011;11798;51.528;7.240;2023-05-10T11:26:43;30.77;;;21.53;;
23258;SDS011;11798;51.528;7.240;2023-05-10T11:29:09;34.67;;;24.63;;
23258;SDS011;11798;51.528;7.240;2023-05-10T11:31:35;33.57;;;24.27;;
23258;SDS011;11798;51.528;7.240;2023-05-10T11:34:07;36.70;;;26.43;;
23258;SDS011;11798;51.528;7.240;2023-05-10T11:36:33;36.47;;;27.07;;
23258;SDS011;11798;51.528;7.240;2023-05-10T11:39:00;34.00;;;25.87;;
23258;SDS011;11798;51.528;7.240;2023-05-10T11:41:27;29.43;;;22.83;;
23258;SDS011;11798;51.528;7.240;2023-05-10T11:43:54;28.93;;;22.43;;
23258;SDS011;11798;51.528;7.240;2023-05-10T11:46:21;28.33;;;20.67;;
23258;SDS011;11798;51.528;7.240;2023-05-10T11:48:49;27.30;;;21.00;;
23258;SDS011;11798;51.528;7.240;2023-05-10T11:51:19;24.90;;;20.07;;
23258;SDS011;11798;51.528;7.240;2023-05-10T11:53:45;24.53;;;17.80;;
23258;SDS011;11798;51.528;7.240;2023-05-10T11:56:11;21.43;;;17.43;;
23258;SDS011;11798;51.528;7.240;2023-05-10T11:58:37;25.27;;;18.67;;
23258;SDS011;11798;51.528;7.240;2023-05-10T12:01:04;26.77;;;18.27;;
23258;SDS011;11798;51.528;7.240;2023-05-10T12:03:31;25.60;;;18.37;;
23258;SDS011;11798;51.528;7.240;2023-05-10T12:05:57;26.07;;;17.00;;
23258;SDS011;11798;51.528;7.240;2023-05-10T12:08:25;22.63;;;17.23;;
23258;SDS011;11798;51.528;7.240;2023-05-10T12:10:52;20.77;;;15.53;;
23258;SDS011;11798;51.528;7.240;2023-05-10T12:13:19;20.73;;;16.03;;
23258;SDS011;11798;51.528;7.240;2023-05-10T12:15:46;23.10;;;15.80;;
23258;SDS011;11798;51.528;7.240;2023-05-10T12:18:12;21.53;;;14.20;;
23258;SDS011;11798;51.528;7.240;2023-05-10T12:20:39;21.53;;;16.27;;
23258;SDS011;11798;51.528;7.240;2023-05-10T12:23:05;21.33;;;15.90;;
23258;SDS011;11798;51.528;7.240;2023-05-10T12:25:34;20.63;;;15.47;;
23258;SDS011;11798;51.528;7.240;2023-05-10T12:28:05;20.37;;;15.60;;
23258;SDS011;11798;51.528;7.240;2023-05-10T12:30:32;20.00;;;15.20;;
23258;SDS011;11798;51.528;7.240;2023-05-10T12:33:00;20.37;;;16.57;;
23258;SDS011;11798;51.528;7.240;2023-05-10T12:41:01;19.87;;;16.10;;
23258;SDS011;11798;51.528;7.240;2023-05-10T12:43:31;21.80;;;15.20;;
23258;SDS011;11798;51.528;7.240;2023-05-10T12:45:57;20.73;;;15.37;;
23258;SDS011;11798;51.528;7.240;2023-05-10T12:48:22;18.40;;;15.43;;
23258;SDS011;11798;51.528;7.240;2023-05-10T12:50:48;20.10;;;17.30;;
23258;SDS011;11798;51.528;7.240;2023-05-10T12:53:14;19.80;;;16.10;;
23258;SDS011;11798;51.528;7.240;2023-05-10T12:55:41;22.77;;;16.90;;
23258;SDS011;11798;51.528;7.240;2023-05-10T12:58:07;20.93;;;17.23;;
23258;SDS011;11798;51.528;7.240;2023-05-10T13:00:33;22.17;;;17.17;;
23258;SDS011;11798;51.528;7.240;2023-05-10T13:02:58;21.27;;;16.57;;
23258;SDS011;11798;51.528;7.240;2023-05-10T13:05:24;21.97;;;16.43;;
23258;SDS011;11798;51.528;7.240;2023-05-10T13:07:49;17.63;;;14.70;;
23258;SDS011;11798;51.528;7.240;2023-05-10T13:10:15;19.17;;;16.23;;
23258;SDS011;11798;51.528;7.240;2023-05-10T13:12:41;20.13;;;16.63;;
23258;SDS011;11798;51.528;7.240;2023-05-10T13:15:07;19.87;;;17.33;;
23258;SDS011;11798;51.528;7.240;2023-05-10T13:17:32;22.50;;;17.50;;
23258;SDS011;11798;51.528;7.240;2023-05-10T13:19:58;17.90;;;16.00;;
23258;SDS011;11798;51.528;7.240;2023-05-10T13:22:23;16.27;;;13.60;;
23258;SDS011;11798;51.528;7.240;2023-05-10T13:24:49;15.90;;;13.20;;
23258;SDS011;11798;51.528;7.240;2023-05-10T13:27:15;20.43;;;13.90;;
23258;SDS011;11798;51.528;7.240;2023-05-10T13:29:41;14.43;;;12.37;;
23258;SDS011;11798;51.528;7.240;2023-05-10T13:32:06;14.97;;;12.33;;
23258;SDS011;11798;51.528;7.240;2023-05-10T13:34:32;12.83;;;11.13;;
23258;SDS011;11798;51.528;7.240;2023-05-10T13:36:57;9.23;;;8.30;;
23258;SDS011;11798;51.528;7.240;2023-05-10T13:39:23;11.83;;;8.80;;
23258;SDS011;11798;51.528;7.240;2023-05-10T13:41:48;8.73;;;7.57;;
23258;SDS011;11798;51.528;7.240;2023-05-10T13:44:14;10.80;;;7.57;;
23258;SDS011;11798;51.528;7.240;2023-05-10T13:46:41;8.63;;;6.72;;
23258;SDS011;11798;51.528;7.240;2023-05-10T13:49:10;7.43;;;6.10;;
23258;SDS011;11798;51.528;7.240;2023-05-10T13:51:35;6.87;;;6.17;;
23258;SDS011;11798;51.528;7.240;2023-05-10T13:54:04;6.83;;;5.33;;
23258;SDS011;11798;51.528;7.240;2023-05-10T13:56:29;8.70;;;5.87;;
23258;SDS011;11798;51.528;7.240;2023-05-10T13:58:58;7.93;;;5.57;;
23258;SDS011;11798;51.528;7.240;2023-05-10T14:01:24;8.20;;;6.18;;
23258;SDS011;11798;51.528;7.240;2023-05-10T14:03:49;6.88;;;5.15;;
23258;SDS011;11798;51.528;7.240;2023-05-10T14:06:15;6.47;;;5.68;;
23258;SDS011;11798;51.528;7.240;2023-05-10T14:08:41;8.57;;;6.00;;
23258;SDS011;11798;51.528;7.240;2023-05-10T14:11:06;8.23;;;5.60;;
23258;SDS011;11798;51.528;7.240;2023-05-10T14:13:32;8.07;;;6.40;;
23258;SDS011;11798;51.528;7.240;2023-05-10T14:15:58;8.70;;;6.28;;
23258;SDS011;11798;51.528;7.240;2023-05-10T14:18:25;6.75;;;5.32;;
23258;SDS011;11798;51.528;7.240;2023-05-10T14:20:54;6.93;;;5.50;;
23258;SDS011;11798;51.528;7.240;2023-05-10T14:23:21;6.65;;;5.45;;
23258;SDS011;11798;51.528;7.240;2023-05-10T14:25:49;6.18;;;4.38;;
23258;SDS011;11798;51.528;7.240;2023-05-10T14:28:15;6.00;;;5.13;;
23258;SDS011;11798;51.528;7.240;2023-05-10T14:30:42;6.97;;;4.70;;
23258;SDS011;11798;51.528;7.240;2023-05-10T14:33:08;5.82;;;4.45;;
23258;SDS011;11798;51.528;7.240;2023-05-10T14:35:33;7.45;;;5.68;;
23258;SDS011;11798;51.528;7.240;2023-05-10T14:37:59;6.40;;;5.63;;
23258;SDS011;11798;51.528;7.240;2023-05-10T14:40:24;6.32;;;5.43;;
23258;SDS011;11798;51.528;7.240;2023-05-10T14:42:50;6.40;;;5.35;;
23258;SDS011;11798;51.528;7.240;2023-05-10T14:45:17;6.43;;;5.55;;
23258;SDS011;11798;51.528;7.240;2023-05-10T14:47:43;7.30;;;5.13;;
23258;SDS011;11798;51.528;7.240;2023-05-10T14:50:09;8.07;;;5.30;;
23258;SDS011;11798;51.528;7.240;2023-05-10T14:52:35;6.55;;;5.82;;
23258;SDS011;11798;51.528;7.240;2023-05-10T14:55:01;6.82;;;4.95;;
23258;SDS011;11798;51.528;7.240;2023-05-10T14:57:27;6.60;;;5.40;;